Time;durP1;ratioP1;P1;durP2;ratioP2;P2;SDS_P1;SDS_P2;PMS_P1;PMS_P2;Temp;Humidity;BMP_temperature;BMP_pressure;BME280_temperature;BME280_humidity;BME280_pressure;Samples;Min_cycle;Max_cycle;Signal;HPM_P1;HPM_P2
2022/06/20 00:01:10;;;;;;;16.77;6.13;;;20.90;72.80;;;;;;5033599;28;20029;-89
2022/06/20 00:03:39;;;;;;;15.63;6.95;;;20.90;72.90;;;;;;5041961;28;20168;-88
2022/06/20 00:06:05;;;;;;;19.00;6.43;;;20.80;73.10;;;;;;5033014;28;20037;-89
2022/06/20 00:08:31;;;;;;;19.05;6.80;;;20.80;73.30;;;;;;5024299;28;20036;-88
2022/06/20 00:10:58;;;;;;;17.27;6.68;;;20.80;73.40;;;;;;5033922;28;20549;-89
2022/06/20 00:13:31;;;;;;;19.83;6.70;;;20.80;73.40;;;;;;5034748;28;20366;-88
2022/06/20 00:15:57;;;;;;;18.52;6.90;;;20.70;73.50;;;;;;5036072;28;20083;-88
2022/06/20 00:18:23;;;;;;;14.00;6.60;;;20.70;73.70;;;;;;5036421;28;20044;-89
2022/06/20 00:20:49;;;;;;;18.20;7.43;;;20.70;73.90;;;;;;5032261;28;20034;-88
2022/06/20 00:23:15;;;;;;;17.33;6.57;;;20.70;73.90;;;;;;5036061;28;20106;-88
2022/06/20 00:25:41;;;;;;;20.17;7.05;;;20.70;73.90;;;;;;5032253;28;20033;-88
2022/06/20 00:28:08;;;;;;;23.30;7.45;;;20.60;73.80;;;;;;5031640;28;20049;-89
2022/06/20 00:30:35;;;;;;;16.23;7.28;;;20.60;74.10;;;;;;5031340;28;20033;-88
2022/06/20 00:33:01;;;;;;;22.42;7.57;;;20.60;74.30;;;;;;5039769;28;20650;-89
2022/06/20 00:35:27;;;;;;;19.42;7.32;;;20.60;74.40;;;;;;5031073;28;20064;-88
2022/06/20 00:37:56;;;;;;;14.65;6.82;;;20.60;74.40;;;;;;5040180;28;20043;-89
2022/06/20 00:40:35;;;;;;;18.70;7.45;;;20.60;74.40;;;;;;5034700;28;20550;-88
2022/06/20 00:43:02;;;;;;;12.82;6.63;;;20.50;74.30;;;;;;5031737;28;20055;-89
2022/06/20 00:45:33;;;;;;;16.85;7.47;;;20.50;74.30;;;;;;5029852;28;20025;-88
2022/06/20 00:48:06;;;;;;;18.88;7.57;;;20.50;74.30;;;;;;5024421;28;20087;-89
2022/06/20 00:50:33;;;;;;;16.48;7.57;;;20.50;74.40;;;;;;5030210;28;20495;-89
2022/06/20 00:53:07;;;;;;;17.10;7.70;;;20.50;74.40;;;;;;5031800;28;20041;-88
2022/06/20 00:55:44;;;;;;;16.02;7.30;;;20.50;74.40;;;;;;5034935;28;20488;-88
2022/06/20 00:58:44;;;;;;;25.13;8.05;;;20.40;74.30;;;;;;5036489;28;20790;-89
2022/06/20 01:01:20;;;;;;;16.27;7.30;;;20.40;74.40;;;;;;5031911;28;20040;-88
2022/06/20 01:03:52;;;;;;;17.23;7.20;;;20.40;74.30;;;;;;5038461;28;20315;-89
2022/06/20 01:06:30;;;;;;;16.98;7.40;;;20.40;74.30;;;;;;5034863;28;20021;-89
2022/06/20 01:09:05;;;;;;;15.35;7.45;;;20.40;74.30;;;;;;5029975;28;20457;-88
2022/06/20 01:11:47;;;;;;;17.00;7.65;;;20.30;74.20;;;;;;5038415;28;20040;-88
2022/06/20 01:14:28;;;;;;;13.82;7.15;;;20.30;74.40;;;;;;5029569;28;20029;-88
2022/06/20 01:16:58;;;;;;;15.38;7.35;;;20.20;74.40;;;;;;5038193;28;20021;-88
2022/06/20 01:19:59;;;;;;;17.48;8.40;;;20.20;74.30;;;;;;5031245;28;20934;-88
2022/06/20 01:22:39;;;;;;;19.70;8.20;;;20.20;74.30;;;;;;5031167;28;20057;-88
2022/06/20 01:25:18;;;;;;;;;;;20.20;74.50;;;;;;5030743;28;20075;-87
2022/06/20 01:27:47;;;;;;;22.75;8.90;;;20.20;74.70;;;;;;5025340;28;19952;-88
2022/06/20 01:30:13;;;;;;;23.90;8.35;;;20.10;75.00;;;;;;5029477;28;20029;-88
2022/06/20 01:32:40;;;;;;;18.75;8.10;;;20.10;75.10;;;;;;5037405;28;20182;-88
2022/06/20 01:35:11;;;;;;;21.08;8.50;;;20.10;75.10;;;;;;5033509;28;20032;-87
2022/06/20 01:37:41;;;;;;;18.52;8.38;;;20.10;75.10;;;;;;5029987;28;20044;-87
2022/06/20 01:40:13;;;;;;;20.50;8.02;;;20.10;75.10;;;;;;5030066;28;20121;-88
2022/06/20 01:42:41;;;;;;;19.55;7.53;;;20.10;75.00;;;;;;5031377;28;20398;-88
2022/06/20 01:48:11;;;;;;;20.13;8.00;;;19.90;74.70;;;;;;5037256;28;20036;-88
2022/06/20 01:50:38;;;;;;;19.27;7.95;;;19.80;74.50;;;;;;5036636;28;20044;-88
2022/06/20 01:53:06;;;;;;;16.20;7.40;;;19.80;74.50;;;;;;5030282;28;20079;-89
2022/06/20 01:55:34;;;;;;;17.52;8.10;;;19.80;74.60;;;;;;5026884;28;20032;-87
2022/06/20 01:58:11;;;;;;;20.52;8.23;;;19.70;74.50;;;;;;5032069;28;20021;-88
2022/06/20 02:00:38;;;;;;;21.33;8.98;;;19.60;74.90;;;;;;5021325;28;20031;-88
2022/06/20 02:03:13;;;;;;;18.50;8.38;;;19.60;75.20;;;;;;5038593;28;20041;-88
2022/06/20 02:05:42;;;;;;;20.80;8.98;;;19.60;75.60;;;;;;5030294;28;20043;-89
2022/06/20 02:08:08;;;;;;;22.90;8.85;;;19.60;75.70;;;;;;5031095;28;20041;-88
2022/06/20 02:10:44;;;;;;;20.73;8.35;;;19.60;75.70;;;;;;5028179;28;20029;-88
2022/06/20 02:13:11;;;;;;;19.38;8.23;;;19.60;75.80;;;;;;5026660;28;20025;-89
2022/06/20 02:15:38;;;;;;;20.38;9.05;;;19.60;75.70;;;;;;5028527;28;20033;-88
2022/06/20 02:18:07;;;;;;;20.27;8.57;;;19.60;76.00;;;;;;5028521;28;24169;-88
2022/06/20 02:20:44;;;;;;;19.67;8.80;;;19.60;76.00;;;;;;5039545;28;20286;-87
2022/06/20 02:23:10;;;;;;;20.85;9.50;;;19.60;75.90;;;;;;5029476;28;20041;-88
2022/06/20 02:25:36;;;;;;;20.73;9.25;;;19.60;75.80;;;;;;5029540;28;20660;-87
2022/06/20 02:28:09;;;;;;;21.73;9.10;;;19.60;75.90;;;;;;5028325;28;20032;-88
2022/06/20 02:30:37;;;;;;;21.13;9.73;;;19.60;75.90;;;;;;5029466;28;20032;-88
2022/06/20 02:33:11;;;;;;;22.00;10.32;;;19.60;76.40;;;;;;5041018;28;20025;-88
2022/06/20 02:35:38;;;;;;;24.98;9.88;;;19.60;76.80;;;;;;5029296;28;20026;-88
2022/06/20 02:38:04;;;;;;;17.25;9.77;;;19.60;76.90;;;;;;5041363;28;20427;-87
2022/06/20 02:40:31;;;;;;;21.58;10.07;;;19.60;76.90;;;;;;5032130;28;20086;-88
2022/06/20 02:43:00;;;;;;;20.05;10.20;;;19.60;77.50;;;;;;5029572;28;20499;-88
2022/06/20 02:45:27;;;;;;;21.88;11.02;;;19.60;77.10;;;;;;5029690;28;20021;-88
2022/06/20 02:47:57;;;;;;;19.98;10.35;;;19.60;77.20;;;;;;5036372;28;20120;-88
2022/06/20 02:50:27;;;;;;;23.88;10.82;;;19.70;77.50;;;;;;5037775;28;20024;-88
2022/06/20 02:53:03;;;;;;;27.42;10.65;;;19.70;77.70;;;;;;5039940;28;20060;-88
2022/06/20 02:55:30;;;;;;;22.08;10.73;;;19.70;77.80;;;;;;5025218;28;20045;-88
2022/06/20 02:57:59;;;;;;;27.02;11.48;;;19.80;77.80;;;;;;5033780;28;20025;-88
2022/06/20 03:00:37;;;;;;;27.20;10.35;;;19.70;77.70;;;;;;5030247;28;20491;-88
2022/06/20 03:03:11;;;;;;;24.33;10.70;;;19.80;77.70;;;;;;5032603;28;20041;-88
2022/06/20 03:05:40;;;;;;;24.25;10.70;;;19.80;77.60;;;;;;5030142;28;20064;-88
2022/06/20 03:08:06;;;;;;;25.23;10.23;;;19.80;77.60;;;;;;5032747;28;20030;-88
2022/06/20 03:10:41;;;;;;;27.15;10.52;;;19.70;77.50;;;;;;5033394;28;20117;-88
2022/06/20 03:13:08;;;;;;;22.77;11.70;;;19.70;77.40;;;;;;5032199;28;20033;-88
2022/06/20 03:15:36;;;;;;;24.85;11.13;;;19.60;77.30;;;;;;5031699;28;20472;-88
2022/06/20 03:18:04;;;;;;;26.98;10.88;;;19.60;77.60;;;;;;5032674;28;20049;-88
2022/06/20 03:20:29;;;;;;;27.60;11.15;;;19.60;77.70;;;;;;5032912;28;20560;-88
2022/06/20 03:23:05;;;;;;;24.02;10.15;;;19.50;77.70;;;;;;5033395;28;20048;-88
2022/06/20 03:25:32;;;;;;;23.42;10.98;;;19.50;77.70;;;;;;5031272;28;20017;-88
2022/06/20 03:27:58;;;;;;;21.00;10.13;;;19.50;77.80;;;;;;5031354;28;20030;-88
2022/06/20 03:30:34;;;;;;;20.98;9.70;;;19.50;77.70;;;;;;5040633;28;20040;-88
2022/06/20 03:33:04;;;;;;;21.00;9.32;;;19.50;77.50;;;;;;5028024;28;20087;-88
2022/06/20 03:35:32;;;;;;;23.13;9.75;;;19.50;77.20;;;;;;5029509;28;20025;-88
2022/06/20 03:38:00;;;;;;;26.73;10.27;;;19.50;77.10;;;;;;5033776;28;20068;-88
2022/06/20 03:40:27;;;;;;;23.58;11.10;;;19.50;77.10;;;;;;5032715;28;20114;-88
2022/06/20 03:42:55;;;;;;;30.00;11.52;;;19.50;77.20;;;;;;5032186;28;20368;-88
2022/06/20 03:45:23;;;;;;;24.08;11.65;;;19.50;77.40;;;;;;5032564;28;20045;-89
2022/06/20 03:47:58;;;;;;;25.10;11.57;;;19.50;77.70;;;;;;5036924;28;20033;-87
2022/06/20 03:50:54;;;;;;;29.73;11.48;;;19.50;77.90;;;;;;5035988;28;20546;-88
2022/06/20 03:53:33;;;;;;;28.55;11.93;;;19.50;78.20;;;;;;5035799;28;20036;-88
2022/06/20 03:56:22;;;;;;;28.60;11.93;;;19.60;78.50;;;;;;5027643;28;20830;-89
2022/06/20 03:58:54;;;;;;;23.58;11.82;;;19.60;78.70;;;;;;5034157;28;20026;-88
2022/06/20 04:01:45;;;;;;;24.02;11.15;;;19.60;78.90;;;;;;5043624;28;20029;-88
2022/06/20 04:04:31;;;;;;;24.27;11.70;;;19.60;79.00;;;;;;5036502;28;20033;-88
2022/06/20 04:07:02;;;;;;;24.48;12.35;;;19.60;79.00;;;;;;5034990;28;20037;-88
2022/06/20 04:12:27;;;;;;;26.08;12.52;;;19.70;79.10;;;;;;5033290;28;19912;-87
2022/06/20 04:14:59;;;;;;;25.60;11.55;;;19.70;79.10;;;;;;5037090;28;20029;-84
2022/06/20 04:20:31;;;;;;;36.55;11.15;;;19.70;79.20;;;;;;5037897;28;20033;-84
2022/06/20 04:22:58;;;;;;;31.80;11.63;;;19.70;79.30;;;;;;5037707;28;20311;-88
2022/06/20 04:25:38;;;;;;;33.28;12.57;;;19.70;79.20;;;;;;5045006;28;20127;-89
2022/06/20 04:28:14;;;;;;;35.83;12.07;;;19.70;79.20;;;;;;5042415;28;20113;-85
2022/06/20 04:30:49;;;;;;;34.85;12.30;;;19.80;79.30;;;;;;5032192;28;20026;-86
2022/06/20 04:33:23;;;;;;;32.55;11.80;;;19.80;79.30;;;;;;5033668;28;20530;-92
2022/06/20 04:36:21;;;;;;;23.85;11.43;;;19.80;79.30;;;;;;5039255;28;20112;-83
2022/06/20 04:39:05;;;;;;;25.63;11.88;;;19.80;79.30;;;;;;5037544;28;20049;-85
2022/06/20 04:41:35;;;;;;;30.42;11.70;;;19.80;79.40;;;;;;5027803;28;20535;-86
2022/06/20 04:44:10;;;;;;;27.55;12.30;;;19.90;79.30;;;;;;5039465;28;20088;-83
2022/06/20 04:47:05;;;;;;;33.90;11.98;;;19.80;79.40;;;;;;5037176;28;20091;-85
2022/06/20 04:49:32;;;;;;;28.65;11.38;;;19.90;79.60;;;;;;5036358;28;20108;-83
2022/06/20 04:51:58;;;;;;;28.15;11.93;;;19.90;79.50;;;;;;5038183;28;20030;-79
2022/06/20 04:54:24;;;;;;;24.55;11.95;;;20.00;79.50;;;;;;5037892;28;20036;-84
2022/06/20 04:56:54;;;;;;;29.75;11.77;;;20.00;79.40;;;;;;5040905;28;20128;-84
2022/06/20 04:59:26;;;;;;;30.67;11.57;;;20.10;79.40;;;;;;5039892;28;20092;-81
2022/06/20 05:01:53;;;;;;;26.40;11.13;;;20.10;79.40;;;;;;5064253;28;20085;-84
2022/06/20 05:04:31;;;;;;;30.60;12.55;;;20.10;79.50;;;;;;5035997;28;20035;-86
2022/06/20 05:06:59;;;;;;;24.55;11.60;;;20.10;79.60;;;;;;5035599;28;20055;-83
2022/06/20 05:09:34;;;;;;;30.42;12.02;;;20.10;79.70;;;;;;5033307;28;20033;-81
2022/06/20 05:12:43;;;;;;;28.50;11.85;;;20.10;79.80;;;;;;5030889;28;20484;-78
2022/06/20 05:15:39;;;;;;;33.38;12.02;;;20.10;80.00;;;;;;5030325;28;20021;-79
2022/06/20 05:18:23;;;;;;;33.92;11.75;;;20.20;80.00;;;;;;5026949;28;20030;-85
2022/06/20 05:20:54;;;;;;;25.60;11.55;;;20.20;80.00;;;;;;5034827;28;20116;-81
2022/06/20 05:23:32;;;;;;;27.23;11.52;;;20.30;80.00;;;;;;5031315;28;20124;-84
2022/06/20 05:26:00;;;;;;;28.85;11.60;;;20.30;80.00;;;;;;5029662;28;20025;-84
2022/06/20 05:28:27;;;;;;;25.40;11.38;;;20.30;80.30;;;;;;5029545;28;20095;-83
2022/06/20 05:30:54;;;;;;;20.80;11.77;;;20.40;81.80;;;;;;5027550;28;20502;-82
2022/06/20 05:33:40;;;;;;;22.92;11.65;;;20.40;81.20;;;;;;5030184;28;20052;-82
2022/06/20 05:36:10;;;;;;;22.38;12.50;;;20.50;81.70;;;;;;5016228;28;20018;-83
2022/06/20 05:38:50;;;;;;;21.80;11.73;;;20.40;81.80;;;;;;5028812;28;20036;-87
2022/06/20 05:41:17;;;;;;;25.45;12.20;;;20.50;82.20;;;;;;5034057;28;20115;-87
2022/06/20 05:43:42;;;;;;;23.85;11.65;;;20.50;82.30;;;;;;5031310;28;20045;-86
2022/06/20 05:46:16;;;;;;;26.00;12.68;;;20.50;82.70;;;;;;5030216;28;20056;-86
2022/06/20 05:48:50;;;;;;;29.15;12.90;;;20.50;82.70;;;;;;5029949;28;20094;-85
2022/06/20 05:51:18;;;;;;;32.38;13.57;;;20.50;83.10;;;;;;5029324;28;20026;-85
2022/06/20 05:53:48;;;;;;;25.80;12.50;;;20.50;83.30;;;;;;5028775;28;20459;-85
2022/06/20 05:56:20;;;;;;;25.70;13.38;;;20.60;83.30;;;;;;5029965;28;20013;-85
2022/06/20 05:58:48;;;;;;;29.00;13.90;;;20.60;83.40;;;;;;5029307;28;20397;-85
2022/06/20 06:01:19;;;;;;;29.48;13.63;;;20.70;83.40;;;;;;5029315;28;20404;-85
2022/06/20 06:03:44;;;;;;;27.27;14.05;;;20.70;83.50;;;;;;5028684;28;20041;-85
2022/06/20 06:06:19;;;;;;;25.58;14.77;;;20.80;83.50;;;;;;5028801;28;20028;-86
2022/06/20 06:08:59;;;;;;;28.05;15.32;;;20.80;83.80;;;;;;5028588;28;20044;-84
2022/06/20 06:11:30;;;;;;;33.65;14.70;;;20.90;83.90;;;;;;5026683;28;20060;-84
2022/06/20 06:14:12;;;;;;;28.45;15.48;;;20.90;83.70;;;;;;5029288;28;20029;-84
2022/06/20 06:16:46;;;;;;;29.90;15.30;;;21.00;84.10;;;;;;5029541;28;20033;-87
2022/06/20 06:19:20;;;;;;;32.53;15.13;;;21.00;84.10;;;;;;5023729;28;20072;-87
2022/06/20 06:21:48;;;;;;;30.63;15.02;;;21.00;84.00;;;;;;5028565;28;20060;-87
2022/06/20 06:24:18;;;;;;;32.80;16.42;;;21.10;83.60;;;;;;5029396;28;20037;-86
2022/06/20 06:26:46;;;;;;;26.83;15.70;;;21.20;83.50;;;;;;5028258;28;20056;-82
2022/06/20 06:29:26;;;;;;;29.92;15.85;;;21.20;83.40;;;;;;5032311;28;20029;-84
2022/06/20 06:31:58;;;;;;;28.70;15.20;;;21.20;83.50;;;;;;5016678;28;20057;-84
2022/06/20 06:34:38;;;;;;;28.48;16.15;;;21.30;83.10;;;;;;5026060;28;20099;-83
2022/06/20 06:37:12;;;;;;;33.88;16.58;;;21.30;83.00;;;;;;5022966;28;20021;-83
2022/06/20 06:39:52;;;;;;;34.05;18.13;;;21.30;82.80;;;;;;5054896;28;20041;-79
2022/06/20 06:42:18;;;;;;;32.63;17.48;;;21.30;82.90;;;;;;5028526;28;20045;-80
2022/06/20 06:44:47;;;;;;;33.08;16.90;;;21.20;83.00;;;;;;5031282;28;20070;-81
2022/06/20 06:47:20;;;;;;;34.67;18.13;;;21.20;83.30;;;;;;5030180;28;20128;-80
2022/06/20 06:49:49;;;;;;;31.33;18.02;;;21.20;83.50;;;;;;5021488;28;20063;-80
2022/06/20 06:52:15;;;;;;;36.30;18.80;;;21.20;83.80;;;;;;5025877;28;20040;-79
2022/06/20 06:54:40;;;;;;;32.80;18.83;;;21.20;83.90;;;;;;5033576;28;20030;-79
2022/06/20 06:57:14;;;;;;;30.20;18.30;;;21.10;84.20;;;;;;5029608;28;20098;-79
2022/06/20 06:59:44;;;;;;;38.70;19.77;;;21.10;84.50;;;;;;5033285;28;20028;-80
2022/06/20 07:02:15;;;;;;;40.20;19.23;;;21.10;84.40;;;;;;5030243;28;20538;-80
2022/06/20 07:04:53;;;;;;;32.75;19.90;;;21.10;84.60;;;;;;5016910;28;20057;-80
2022/06/20 07:07:41;;;;;;;38.85;19.92;;;21.20;84.70;;;;;;5032789;28;20029;-79
2022/06/20 07:10:17;;;;;;;32.38;19.60;;;21.20;84.60;;;;;;5025708;28;20030;-80
2022/06/20 07:12:53;;;;;;;35.83;19.83;;;21.20;84.60;;;;;;5029190;28;20029;-80
2022/06/20 07:15:25;;;;;;;33.50;19.88;;;21.30;84.40;;;;;;5025124;28;20115;-80
2022/06/20 07:17:56;;;;;;;40.42;20.02;;;21.40;84.40;;;;;;5031120;28;20468;-80
2022/06/20 07:20:27;;;;;;;38.45;19.27;;;21.50;83.80;;;;;;5029885;28;20110;-80
2022/06/20 07:22:53;;;;;;;33.08;19.70;;;21.60;83.10;;;;;;5034025;28;20725;-79
2022/06/20 07:25:24;;;;;;;39.28;20.42;;;21.70;82.40;;;;;;5023983;28;20091;-80
2022/06/20 07:28:05;;;;;;;41.00;21.38;;;21.80;81.30;;;;;;5028262;28;20064;-81
2022/06/20 07:30:41;;;;;;;37.83;20.33;;;22.00;80.50;;;;;;5030907;28;20040;-81
2022/06/20 07:33:13;;;;;;;35.60;21.63;;;22.30;78.90;;;;;;5019231;28;20022;-80
2022/06/20 07:35:46;;;;;;;37.25;20.55;;;22.40;78.30;;;;;;5027632;28;20025;-79
2022/06/20 07:38:38;;;;;;;38.08;19.95;;;22.50;78.00;;;;;;5034790;28;20059;-79
2022/06/20 07:41:13;;;;;;;39.67;20.65;;;22.60;77.50;;;;;;5012709;28;20065;-79
2022/06/20 07:44:11;;;;;;;37.50;20.77;;;22.80;76.40;;;;;;5028628;28;20037;-79
2022/06/20 07:46:44;;;;;;;42.53;20.95;;;22.80;75.70;;;;;;5020913;28;20463;-79
2022/06/20 07:49:26;;;;;;;36.60;21.38;;;22.90;75.30;;;;;;5027424;28;20029;-81
2022/06/20 07:51:56;;;;;;;38.40;20.85;;;22.90;75.00;;;;;;5025414;28;20065;-80
2022/06/20 07:54:31;;;;;;;38.50;21.13;;;22.90;74.50;;;;;;5032840;28;20045;-83
2022/06/20 07:57:02;;;;;;;36.03;19.77;;;23.20;73.40;;;;;;5029730;28;20028;-81
2022/06/20 07:59:35;;;;;;;38.67;20.45;;;23.50;72.00;;;;;;5030664;28;20025;-81
2022/06/20 08:02:21;;;;;;;36.42;19.30;;;23.70;71.20;;;;;;5032197;28;20022;-80
2022/06/20 08:04:52;;;;;;;37.72;19.40;;;24.00;70.40;;;;;;5019770;28;20072;-78
2022/06/20 08:07:26;;;;;;;;;;;24.30;68.70;;;;;;5026302;28;20454;-82
2022/06/20 08:10:14;;;;;;;38.83;19.27;;;24.70;67.10;;;;;;5027654;28;19916;-79
2022/06/20 08:12:56;;;;;;;35.78;17.73;;;25.00;65.70;;;;;;5027287;28;20722;-77
2022/06/20 08:15:23;;;;;;;32.90;18.20;;;25.50;64.20;;;;;;5018912;28;20051;-78
2022/06/20 08:17:49;;;;;;;36.28;18.33;;;25.90;61.40;;;;;;5029607;28;20355;-79
2022/06/20 08:20:17;;;;;;;35.20;18.02;;;26.00;59.60;;;;;;5023786;28;20027;-79
2022/06/20 08:22:58;;;;;;;31.52;16.95;;;26.00;58.90;;;;;;5021367;28;20052;-79
2022/06/20 08:25:36;;;;;;;31.98;16.75;;;26.20;58.70;;;;;;5025945;28;20033;-79
2022/06/20 08:28:13;;;;;;;30.08;16.80;;;26.20;59.00;;;;;;5031632;28;20037;-78
2022/06/20 08:30:49;;;;;;;30.85;16.25;;;26.00;59.40;;;;;;5023978;28;20030;-78
2022/06/20 08:33:21;;;;;;;27.25;16.48;;;25.80;59.10;;;;;;5027538;28;20506;-78
2022/06/20 08:35:58;;;;;;;31.05;17.30;;;25.60;60.30;;;;;;5027755;28;20035;-78
2022/06/20 08:38:29;;;;;;;30.30;16.85;;;25.50;61.10;;;;;;5046906;28;20084;-78
2022/06/20 08:41:23;;;;;;;29.83;16.88;;;25.20;62.20;;;;;;5028224;28;20045;-78
2022/06/20 08:44:04;;;;;;;28.42;16.63;;;25.00;63.10;;;;;;5026838;28;20047;-80
2022/06/20 08:46:58;;;;;;;31.05;17.35;;;24.90;63.80;;;;;;5027952;28;20400;-78
2022/06/20 08:50:01;;;;;;;28.15;16.95;;;24.80;63.80;;;;;;5024814;28;20634;-78
2022/06/20 08:53:04;;;;;;;32.13;17.77;;;24.80;64.00;;;;;;5020488;28;20068;-78
2022/06/20 08:55:35;;;;;;;28.35;16.23;;;24.80;63.80;;;;;;5020607;28;20688;-78
2022/06/20 08:58:25;;;;;;;27.45;16.83;;;24.80;63.60;;;;;;5019441;28;20022;-79
2022/06/20 09:00:57;;;;;;;31.50;17.27;;;24.90;63.10;;;;;;5024564;28;20036;-78
2022/06/20 09:03:44;;;;;;;27.90;16.33;;;25.00;62.60;;;;;;5009145;28;20095;-78
2022/06/20 09:06:28;;;;;;;30.63;17.15;;;25.20;62.70;;;;;;5027161;28;20492;-78
2022/06/20 09:09:13;;;;;;;31.60;17.20;;;25.40;61.80;;;;;;5026438;28;20029;-78
2022/06/20 09:12:00;;;;;;;28.23;16.85;;;25.70;60.50;;;;;;5022832;28;20033;-78
2022/06/20 09:14:58;;;;;;;28.30;16.35;;;26.20;59.00;;;;;;5032307;28;20072;-78
2022/06/20 09:17:55;;;;;;;27.27;16.10;;;26.70;57.50;;;;;;5031866;28;20025;-81
2022/06/20 09:20:37;;;;;;;25.63;15.90;;;27.00;56.30;;;;;;5035209;28;20041;-79
2022/06/20 09:23:27;;;;;;;27.15;15.45;;;26.80;55.90;;;;;;5024620;28;20036;-80
2022/06/20 09:26:03;;;;;;;29.70;16.50;;;26.70;56.10;;;;;;5026383;28;20029;-81
2022/06/20 09:28:37;;;;;;;30.05;16.75;;;26.60;56.40;;;;;;5026429;28;20454;-79
2022/06/20 09:31:27;;;;;;;32.05;17.15;;;26.40;56.70;;;;;;5023167;28;20077;-81
2022/06/20 09:34:19;;;;;;;29.15;17.77;;;26.40;56.30;;;;;;5027087;28;20034;-84
2022/06/20 09:37:27;;;;;;;30.90;16.42;;;26.70;55.20;;;;;;5025751;28;20037;-80
2022/06/20 09:39:52;;;;;;;29.10;17.20;;;26.90;54.70;;;;;;5023325;28;20038;-81
2022/06/20 09:42:34;;;;;;;25.05;15.25;;;27.70;51.60;;;;;;5017666;28;20045;-85
2022/06/20 09:45:33;;;;;;;27.70;15.88;;;28.30;49.80;;;;;;5039419;28;20021;-80
2022/06/20 09:48:30;;;;;;;29.10;15.30;;;28.80;47.50;;;;;;4990985;28;20166;-81
2022/06/20 09:51:17;;;;;;;25.13;15.70;;;29.00;46.60;;;;;;4989306;28;20034;-84
2022/06/20 09:53:59;;;;;;;29.80;14.73;;;29.30;45.80;;;;;;4986192;28;20089;-83
2022/06/20 09:56:50;;;;;;;24.92;13.50;;;29.20;45.40;;;;;;4984837;28;20023;-85
2022/06/20 09:59:28;;;;;;;23.35;12.73;;;29.60;43.90;;;;;;4987429;28;20042;-81
2022/06/20 10:02:05;;;;;;;26.52;12.65;;;29.80;43.50;;;;;;4988966;28;20044;-84
2022/06/20 10:04:52;;;;;;;25.48;12.07;;;30.10;42.90;;;;;;4988217;28;20046;-83
2022/06/20 10:07:29;;;;;;;23.75;12.23;;;30.50;41.40;;;;;;4989158;28;20457;-83
2022/06/20 10:10:13;;;;;;;22.83;11.30;;;31.20;39.50;;;;;;4977036;28;20034;-80
2022/06/20 10:12:59;;;;;;;23.50;10.52;;;31.90;37.80;;;;;;4989066;28;20097;-84
2022/06/20 10:15:40;;;;;;;24.42;10.68;;;32.30;36.50;;;;;;4985205;28;20090;-85
2022/06/20 10:18:11;;;;;;;19.48;10.55;;;31.90;37.50;;;;;;4991686;28;20061;-83
2022/06/20 10:20:53;;;;;;;20.75;10.18;;;32.10;36.90;;;;;;4988630;28;20042;-81
2022/06/20 10:23:56;;;;;;;17.80;9.15;;;32.00;36.70;;;;;;4986945;28;20041;-85
2022/06/20 10:26:31;;;;;;;17.70;8.68;;;32.80;35.50;;;;;;4992244;28;20137;-81
2022/06/20 10:29:14;;;;;;;16.48;8.38;;;33.00;35.20;;;;;;4989688;28;20640;-82
2022/06/20 10:31:44;;;;;;;20.45;8.77;;;33.30;34.00;;;;;;4989812;28;20066;-84
2022/06/20 10:34:44;;;;;;;19.38;8.70;;;33.90;33.30;;;;;;4992655;28;20725;-86
2022/06/20 10:37:32;;;;;;;15.45;8.68;;;34.60;32.20;;;;;;4949183;28;20031;-86
2022/06/20 10:40:35;;;;;;;20.55;8.77;;;34.60;31.30;;;;;;4955476;28;20055;-87
2022/06/20 10:43:13;;;;;;;18.17;8.20;;;34.60;31.50;;;;;;4954218;28;20048;-86
2022/06/20 10:45:53;;;;;;;17.15;8.30;;;34.80;31.30;;;;;;4955301;28;20155;-82
2022/06/20 10:48:36;;;;;;;16.23;7.60;;;34.80;31.20;;;;;;4954840;28;20046;-86
2022/06/20 10:51:32;;;;;;;15.07;7.72;;;35.20;30.30;;;;;;4955238;28;20094;-83
2022/06/20 10:54:03;;;;;;;14.70;7.88;;;35.50;30.00;;;;;;4949791;28;20091;-77
2022/06/20 10:56:35;;;;;;;14.27;7.32;;;35.80;29.90;;;;;;4954297;29;20050;-83
2022/06/20 10:59:47;;;;;;;15.52;6.97;;;35.80;29.60;;;;;;4959854;28;20046;-86
2022/06/20 11:02:33;;;;;;;13.55;6.43;;;36.60;28.80;;;;;;4959092;28;20074;-81
2022/06/20 11:05:14;;;;;;;11.48;6.40;;;36.80;27.90;;;;;;4996468;28;20097;-83
2022/06/20 11:08:01;;;;;;;13.95;6.57;;;36.40;28.70;;;;;;4988035;28;20043;-83
2022/06/20 11:10:42;;;;;;;12.30;6.45;;;35.30;30.00;;;;;;4992714;28;20586;-80
2022/06/20 11:13:22;;;;;;;15.18;6.63;;;34.90;30.50;;;;;;4998555;28;20030;-80
2022/06/20 11:15:53;;;;;;;10.45;5.90;;;36.10;29.10;;;;;;5033860;28;20038;-80
2022/06/20 11:19:14;;;;;;;12.60;6.03;;;37.20;27.70;;;;;;5036101;28;20104;-80
2022/06/20 11:21:52;;;;;;;12.63;6.07;;;38.10;26.90;;;;;;5006227;28;20035;-79
2022/06/20 11:24:55;;;;;;;12.77;5.60;;;38.60;26.20;;;;;;5010611;28;20034;-82
2022/06/20 11:27:39;;;;;;;12.05;5.50;;;38.70;25.70;;;;;;5009384;28;20077;-84
2022/06/20 11:30:11;;;;;;;13.98;6.68;;;38.50;26.00;;;;;;5003399;28;20030;-83
2022/06/20 11:32:45;;;;;;;12.40;6.18;;;38.70;25.40;;;;;;5000328;28;20103;-84
2022/06/20 11:35:36;;;;;;;14.73;5.53;;;38.30;25.90;;;;;;5012705;28;20139;-82
2022/06/20 11:38:20;;;;;;;9.70;4.95;;;38.30;26.10;;;;;;5012677;28;20056;-82
2022/06/20 11:40:49;;;;;;;11.07;5.07;;;38.50;26.10;;;;;;5006293;28;20409;-85
2022/06/20 11:43:29;;;;;;;8.63;4.65;;;38.50;25.80;;;;;;5002938;28;20618;-83
2022/06/20 11:46:02;;;;;;;11.65;6.20;;;38.60;25.80;;;;;;4995958;28;20039;-83
2022/06/20 11:48:50;;;;;;;14.15;5.90;;;38.80;25.50;;;;;;5004100;28;20030;-82
2022/06/20 11:51:40;;;;;;;14.20;6.10;;;38.80;25.50;;;;;;4998990;28;20425;-82
2022/06/20 11:54:31;;;;;;;13.10;5.82;;;38.60;25.70;;;;;;5025270;28;20038;-82
2022/06/20 11:57:02;;;;;;;12.63;6.47;;;39.00;24.70;;;;;;5021030;28;20039;-83
2022/06/20 11:59:46;;;;;;;11.15;5.72;;;37.30;27.00;;;;;;5027748;28;20033;-88
2022/06/20 12:02:33;;;;;;;12.88;5.07;;;37.80;26.40;;;;;;5026353;28;20029;-82
2022/06/20 12:05:17;;;;;;;10.82;5.45;;;38.80;25.40;;;;;;5031544;28;21003;-81
2022/06/20 12:08:23;;;;;;;10.73;5.13;;;39.00;24.80;;;;;;5030941;28;20041;-81
2022/06/20 12:10:59;;;;;;;10.20;4.70;;;39.30;24.20;;;;;;5024638;28;20100;-82
2022/06/20 12:13:40;;;;;;;11.43;5.10;;;38.60;25.20;;;;;;5031831;28;20041;-82
2022/06/20 12:16:33;;;;;;;12.45;5.20;;;39.30;24.60;;;;;;5027962;28;20661;-81
2022/06/20 12:24:38;;;;;;;11.75;5.85;;;35.80;28.40;;;;;;5027713;28;20056;-79
2022/06/20 12:27:12;;;;;;;13.10;4.97;;;35.80;28.70;;;;;;5028849;28;20017;-80
2022/06/20 12:29:41;;;;;;;12.68;6.20;;;37.30;27.10;;;;;;5040343;28;20045;-80
2022/06/20 12:32:18;;;;;;;14.93;6.40;;;36.30;28.20;;;;;;5036945;28;20499;-80
2022/06/20 12:35:05;;;;;;;13.00;5.25;;;35.40;29.00;;;;;;5024288;28;20040;-80
2022/06/20 12:37:40;;;;;;;12.38;5.13;;;36.00;28.60;;;;;;5019610;28;20029;-80
2022/06/20 12:40:12;;;;;;;9.88;5.20;;;36.90;27.50;;;;;;5020559;28;20025;-79
2022/06/20 12:42:49;;;;;;;10.40;5.10;;;36.20;28.30;;;;;;5036958;28;20056;-79
2022/06/20 12:45:50;;;;;;;9.55;4.47;;;37.00;27.00;;;;;;5021794;28;20029;-81
2022/06/20 12:48:52;;;;;;;10.52;4.25;;;37.60;26.10;;;;;;5022029;28;20025;-79
2022/06/20 12:51:55;;;;;;;9.32;4.00;;;38.20;25.60;;;;;;5029001;28;20025;-84
2022/06/20 12:54:24;;;;;;;9.10;4.10;;;38.60;24.80;;;;;;5023695;28;23173;-80
2022/06/20 12:57:11;;;;;;;7.47;4.63;;;38.60;25.30;;;;;;5025585;28;20436;-80
2022/06/20 12:59:59;;;;;;;9.13;4.32;;;37.90;25.90;;;;;;5033650;28;20570;-82
2022/06/20 13:03:00;;;;;;;8.27;3.83;;;37.70;25.80;;;;;;5025608;28;20033;-81
2022/06/20 13:05:51;;;;;;;7.68;3.80;;;37.70;26.10;;;;;;5019500;28;20152;-81
2022/06/20 13:08:35;;;;;;;9.18;3.83;;;37.40;26.40;;;;;;5027129;28;20113;-80
2022/06/20 13:11:19;;;;;;;10.75;4.50;;;36.70;27.30;;;;;;5028237;28;20051;-80
2022/06/20 13:14:35;;;;;;;8.00;4.00;;;36.00;28.10;;;;;;5031689;28;20095;-81
2022/06/20 13:17:33;;;;;;;7.53;4.00;;;35.60;29.10;;;;;;5025982;28;20174;-82
2022/06/20 13:20:04;;;;;;;8.27;4.18;;;35.20;28.90;;;;;;4972381;28;20050;-78
2022/06/20 13:23:07;;;;;;;6.90;4.00;;;35.10;29.40;;;;;;4967958;28;20050;-80
2022/06/20 13:25:41;;;;;;;7.82;4.00;;;34.90;29.60;;;;;;4969026;28;20167;-80
2022/06/20 13:28:19;;;;;;;7.65;3.85;;;34.40;30.30;;;;;;4958096;28;20093;-81
2022/06/20 13:30:59;;;;;;;9.15;4.32;;;34.20;30.40;;;;;;4966715;28;20039;-78
2022/06/20 13:33:30;;;;;;;10.98;4.10;;;34.20;30.70;;;;;;4976652;28;20086;-80
2022/06/20 13:36:15;;;;;;;9.45;4.38;;;33.80;31.20;;;;;;4977097;28;20038;-80
2022/06/20 13:38:54;;;;;;;8.93;4.15;;;33.50;32.00;;;;;;4968721;28;20042;-80